Time;durP1;ratioP1;P1;durP2;ratioP2;P2;SDS_P1;SDS_P2;PMS_P1;PMS_P2;Temp;Humidity;BMP_temperature;BMP_pressure;BME280_temperature;BME280_humidity;BME280_pressure;Samples;Min_cycle;Max_cycle;Signal;HPM_P1;HPM_P2
2022/06/29 00:00:12;;;;;;;5.00;4.60;;;23.20;1.00;;;;;;5036139;28;20434;-55
2022/06/29 00:02:38;;;;;;;4.87;4.57;;;23.10;1.00;;;;;;5033680;28;20482;-54
2022/06/29 00:05:04;;;;;;;4.63;4.33;;;23.10;1.00;;;;;;5032091;28;20470;-53
2022/06/29 00:07:30;;;;;;;5.63;5.17;;;23.00;1.00;;;;;;5026318;28;20658;-53
2022/06/29 00:09:56;;;;;;;5.03;4.63;;;23.00;1.00;;;;;;5031733;28;20470;-55
2022/06/29 00:12:21;;;;;;;5.00;4.60;;;23.00;1.00;;;;;;5036078;28;20211;-52
2022/06/29 00:14:47;;;;;;;4.97;4.57;;;23.10;1.00;;;;;;5034493;28;20208;-53
2022/06/29 00:17:13;;;;;;;5.00;4.60;;;23.10;1.00;;;;;;5031976;28;20195;-56
2022/06/29 00:19:39;;;;;;;4.50;4.20;;;23.00;1.00;;;;;;5026272;28;20659;-54
2022/06/29 00:22:07;;;;;;;4.40;4.10;;;23.00;1.00;;;;;;5049428;28;20936;-54
2022/06/29 00:24:33;;;;;;;4.13;3.83;;;22.90;1.00;;;;;;5024765;28;20452;-54
2022/06/29 00:27:00;;;;;;;4.67;4.37;;;22.90;1.00;;;;;;5030641;28;20493;-54
2022/06/29 00:29:27;;;;;;;4.53;4.23;;;23.00;1.00;;;;;;5027199;28;20477;-55
2022/06/29 00:31:52;;;;;;;6.13;3.77;;;23.00;1.00;;;;;;5045651;28;20447;-54
2022/06/29 00:34:18;;;;;;;4.73;4.40;;;23.00;1.00;;;;;;5025243;28;20481;-54
2022/06/29 00:36:44;;;;;;;4.47;4.07;;;23.10;1.00;;;;;;5026129;28;20270;-53
2022/06/29 00:39:10;;;;;;;4.60;4.30;;;23.00;1.00;;;;;;5019553;28;20543;-54
2022/06/29 00:41:40;;;;;;;4.70;4.40;;;23.00;1.00;;;;;;5020288;28;20543;-54
2022/06/29 00:44:09;;;;;;;4.70;4.40;;;23.20;1.00;;;;;;5029321;28;20204;-53
2022/06/29 00:46:55;;;;;;;4.43;4.13;;;23.20;1.00;;;;;;5024745;28;20510;-55
2022/06/29 00:49:22;;;;;;;4.43;4.13;;;23.10;1.00;;;;;;5027456;28;20475;-53
2022/06/29 00:52:02;;;;;;;4.70;4.40;;;23.10;1.00;;;;;;5028689;28;20446;-55
2022/06/29 00:54:34;;;;;;;4.90;4.20;;;23.10;1.00;;;;;;5049483;28;20437;-55
2022/06/29 00:57:02;;;;;;;4.77;4.47;;;23.20;1.00;;;;;;5024320;28;20509;-54
2022/06/29 00:59:29;;;;;;;5.00;4.60;;;23.20;1.00;;;;;;5035805;28;20563;-54
2022/06/29 01:01:54;;;;;;;5.10;4.70;;;23.20;1.00;;;;;;5053342;28;20989;-54
2022/06/29 01:04:20;;;;;;;4.73;4.37;;;23.30;1.00;;;;;;5039708;28;20467;-56
2022/06/29 01:06:45;;;;;;;4.70;4.33;;;23.30;1.00;;;;;;5030745;28;20216;-54
2022/06/29 01:09:11;;;;;;;4.83;4.43;;;23.20;1.00;;;;;;5027506;28;20223;-53
2022/06/29 01:11:37;;;;;;;5.50;5.00;;;23.30;1.00;;;;;;5032521;28;20223;-53
2022/06/29 01:14:03;;;;;;;5.47;5.00;;;23.30;1.00;;;;;;5032286;28;20192;-55
2022/06/29 01:16:29;;;;;;;5.30;4.90;;;23.20;1.00;;;;;;5031499;28;20996;-55
2022/06/29 01:18:55;;;;;;;4.70;4.40;;;23.20;1.00;;;;;;5039931;28;20180;-55
2022/06/29 01:21:22;;;;;;;5.37;4.90;;;23.40;1.00;;;;;;5027171;28;20516;-54
2022/06/29 01:23:48;;;;;;;5.03;4.53;;;23.20;1.00;;;;;;5032235;28;20188;-55
2022/06/29 01:26:14;;;;;;;5.67;5.17;;;23.10;1.00;;;;;;5030523;28;20431;-53
2022/06/29 01:28:44;;;;;;;5.00;4.53;;;23.20;1.00;;;;;;5031184;28;20192;-56
2022/06/29 01:31:28;;;;;;;5.10;4.80;;;23.20;1.00;;;;;;5049269;28;20192;-54
2022/06/29 01:33:54;;;;;;;5.27;4.87;;;23.10;1.00;;;;;;5032461;28;20439;-55
2022/06/29 01:36:20;;;;;;;5.33;4.93;;;23.00;1.00;;;;;;5031592;28;20963;-53
2022/06/29 01:38:45;;;;;;;5.13;4.83;;;23.00;1.00;;;;;;5022590;28;20443;-55
2022/06/29 01:41:11;;;;;;;5.37;4.97;;;23.10;1.00;;;;;;5033960;28;20431;-54
2022/06/29 01:43:38;;;;;;;7.10;5.57;;;23.10;1.00;;;;;;5033626;28;20188;-56
2022/06/29 01:46:07;;;;;;;6.33;5.30;;;23.00;1.00;;;;;;5022495;28;20681;-55
2022/06/29 01:48:33;;;;;;;5.50;5.00;;;23.00;1.00;;;;;;5026243;28;20516;-54
2022/06/29 01:50:59;;;;;;;5.60;5.10;;;22.90;1.00;;;;;;5027996;28;22530;-56
2022/06/29 01:53:24;;;;;;;6.20;5.70;;;22.80;1.00;;;;;;5024212;28;20458;-54
2022/06/29 01:55:50;;;;;;;6.63;5.40;;;22.80;1.00;;;;;;5030444;28;20414;-54
2022/06/29 01:58:16;;;;;;;5.30;4.93;;;22.80;1.00;;;;;;5028414;28;20228;-54
2022/06/29 02:00:41;;;;;;;5.20;4.90;;;22.80;1.00;;;;;;5034450;28;20254;-54
2022/06/29 02:03:07;;;;;;;5.80;5.30;;;22.80;1.00;;;;;;5030538;28;20192;-55
2022/06/29 02:05:33;;;;;;;5.80;5.40;;;22.70;1.00;;;;;;5040352;28;20181;-54
2022/06/29 02:07:59;;;;;;;5.57;5.23;;;22.70;1.00;;;;;;5027961;28;20189;-55
2022/06/29 02:10:25;;;;;;;5.63;4.97;;;22.80;1.00;;;;;;5029479;28;20213;-54
2022/06/29 02:12:50;;;;;;;5.60;5.20;;;22.70;1.00;;;;;;5029681;28;20203;-56
2022/06/29 02:15:16;;;;;;;5.70;5.30;;;22.80;1.00;;;;;;5031630;28;20439;-56
2022/06/29 02:17:42;;;;;;;5.67;5.17;;;;;;;;;;5039518;28;20190;-56
2022/06/29 02:20:09;;;;;;;5.67;5.07;;;22.70;1.00;;;;;;5046231;28;20184;-56
2022/06/29 02:22:34;;;;;;;5.43;4.80;;;22.70;1.00;;;;;;5029430;28;20447;-54
2022/06/29 02:25:00;;;;;;;5.83;4.53;;;22.70;1.00;;;;;;5033939;28;20457;-53
2022/06/29 02:27:26;;;;;;;5.50;5.00;;;22.60;1.00;;;;;;5030557;28;20270;-53
2022/06/29 02:29:52;;;;;;;5.93;5.20;;;22.60;1.00;;;;;;5032947;28;20607;-53
2022/06/29 02:35:02;;;;;;;5.97;5.47;;;22.50;1.00;;;;;;5030609;28;20223;-53
2022/06/29 02:37:28;;;;;;;5.37;4.97;;;22.40;1.00;;;;;;5034473;28;20594;-54
2022/06/29 02:39:53;;;;;;;5.90;5.40;;;22.40;1.00;;;;;;5033087;28;20527;-54
2022/06/29 02:42:19;;;;;;;6.03;5.13;;;22.50;1.00;;;;;;5028772;28;20188;-55
2022/06/29 02:44:45;;;;;;;6.10;5.67;;;22.50;1.00;;;;;;5032440;28;20188;-54
2022/06/29 02:47:11;;;;;;;5.70;5.30;;;22.50;1.00;;;;;;5023815;28;20961;-55
2022/06/29 02:49:37;;;;;;;6.70;6.10;;;22.50;1.00;;;;;;5027725;28;20681;-54
2022/06/29 02:52:03;;;;;;;5.30;5.00;;;22.50;1.00;;;;;;5026416;28;20439;-55
2022/06/29 02:54:32;;;;;;;6.63;6.00;;;22.40;1.00;;;;;;5026034;28;20443;-54
2022/06/29 02:56:58;;;;;;;6.83;6.43;;;22.30;1.00;;;;;;5030505;28;20436;-53
2022/06/29 02:59:23;;;;;;;5.67;5.27;;;22.30;1.00;;;;;;5027717;28;20972;-55
2022/06/29 03:01:49;;;;;;;6.10;5.70;;;22.30;1.00;;;;;;5033699;28;20188;-54
2022/06/29 03:04:15;;;;;;;12.03;6.93;;;22.20;1.00;;;;;;5027750;28;20216;-55
2022/06/29 03:06:40;;;;;;;6.73;6.23;;;22.30;1.00;;;;;;5030941;28;20228;-55
2022/06/29 03:09:06;;;;;;;6.17;5.67;;;22.40;1.00;;;;;;5026001;28;20208;-53
2022/06/29 03:11:32;;;;;;;6.40;5.90;;;22.50;1.00;;;;;;5032720;28;20181;-54
2022/06/29 03:13:57;;;;;;;6.10;5.50;;;22.50;1.00;;;;;;5031558;28;20231;-54
2022/06/29 03:16:23;;;;;;;6.50;6.00;;;22.50;1.00;;;;;;5031345;28;20204;-53
2022/06/29 03:18:50;;;;;;;6.30;5.80;;;22.60;1.00;;;;;;5028596;28;20218;-53
2022/06/29 03:21:16;;;;;;;6.83;6.33;;;22.70;1.00;;;;;;5050109;28;20199;-56
2022/06/29 03:23:42;;;;;;;6.50;6.03;;;22.70;1.00;;;;;;5030730;28;20486;-54
2022/06/29 03:26:08;;;;;;;6.57;6.07;;;22.70;1.00;;;;;;5026988;28;20801;-53
2022/06/29 03:28:34;;;;;;;6.47;5.90;;;22.80;1.00;;;;;;5022674;28;20495;-55
2022/06/29 03:31:00;;;;;;;7.80;7.00;;;22.80;1.00;;;;;;5028977;28;20220;-53
2022/06/29 03:33:25;;;;;;;7.00;6.43;;;22.70;1.00;;;;;;5029155;28;20541;-54
2022/06/29 03:35:51;;;;;;;7.20;6.70;;;22.70;1.00;;;;;;5041452;28;20569;-53
2022/06/29 03:38:17;;;;;;;7.57;6.87;;;22.60;1.00;;;;;;5033658;28;20193;-54
2022/06/29 03:40:42;;;;;;;7.40;6.70;;;22.60;1.00;;;;;;5029622;28;20257;-53
2022/06/29 03:43:08;;;;;;;7.97;7.37;;;22.60;1.00;;;;;;5034312;28;20617;-54
2022/06/29 03:45:33;;;;;;;7.07;6.57;;;22.50;1.00;;;;;;5022676;28;20264;-56
2022/06/29 03:47:59;;;;;;;7.47;6.87;;;22.50;1.00;;;;;;5033776;28;20650;-56
2022/06/29 03:50:25;;;;;;;7.93;7.33;;;22.50;1.00;;;;;;5026173;28;20753;-55
2022/06/29 03:52:50;;;;;;;7.23;6.63;;;22.40;1.00;;;;;;5039721;28;20192;-53
2022/06/29 03:55:16;;;;;;;7.00;6.37;;;22.40;1.00;;;;;;5020043;28;20219;-54
2022/06/29 03:57:41;;;;;;;7.90;7.30;;;22.30;1.00;;;;;;5022313;28;20185;-55
2022/06/29 04:00:09;;;;;;;7.03;6.53;;;22.30;1.00;;;;;;5027289;28;20197;-54
2022/06/29 04:02:36;;;;;;;7.87;7.07;;;22.30;1.00;;;;;;5037311;28;20672;-54
2022/06/29 04:05:04;;;;;;;7.50;6.90;;;22.30;1.00;;;;;;5030596;28;20998;-54
2022/06/29 04:07:30;;;;;;;9.00;8.10;;;22.30;1.00;;;;;;5029697;28;20486;-55
2022/06/29 04:09:59;;;;;;;8.57;7.77;;;22.20;1.00;;;;;;5023668;28;20470;-56
2022/06/29 04:12:30;;;;;;;7.97;7.37;;;22.20;1.00;;;;;;5030259;28;20440;-55
2022/06/29 04:14:56;;;;;;;8.03;7.43;;;22.20;1.00;;;;;;5032978;28;20492;-56
2022/06/29 04:17:22;;;;;;;8.20;7.50;;;22.20;1.00;;;;;;5027596;28;20975;-53
2022/06/29 04:19:48;;;;;;;8.70;7.90;;;22.20;1.00;;;;;;5026657;28;20455;-54
2022/06/29 04:22:14;;;;;;;9.80;8.97;;;22.30;1.00;;;;;;5030336;28;20666;-55
2022/06/29 04:24:39;;;;;;;9.50;8.80;;;22.30;1.00;;;;;;5029531;28;20493;-54
2022/06/29 04:27:05;;;;;;;9.80;9.00;;;22.30;1.00;;;;;;5031710;28;20232;-54
2022/06/29 04:29:31;;;;;;;12.30;9.10;;;22.30;1.00;;;;;;5028680;28;20239;-55
2022/06/29 04:31:56;;;;;;;9.53;8.80;;;22.30;1.00;;;;;;5030868;28;20181;-53
2022/06/29 04:34:22;;;;;;;9.40;8.70;;;22.30;1.00;;;;;;5039270;28;20185;-54
2022/06/29 04:36:47;;;;;;;10.10;9.20;;;22.30;1.00;;;;;;5036172;28;20279;-52
2022/06/29 04:39:13;;;;;;;10.00;9.10;;;22.20;1.00;;;;;;5044185;28;20215;-53
2022/06/29 04:41:38;;;;;;;9.93;9.10;;;22.30;1.00;;;;;;5048842;28;20852;-53
2022/06/29 04:44:04;;;;;;;9.53;8.80;;;22.30;1.00;;;;;;5047944;28;20195;-54
2022/06/29 04:46:30;;;;;;;9.33;8.53;;;22.20;1.00;;;;;;5039157;28;20271;-53
2022/06/29 04:49:00;;;;;;;9.43;8.73;;;22.10;1.00;;;;;;5034780;28;20267;-52
2022/06/29 04:51:28;;;;;;;10.27;9.37;;;22.20;1.00;;;;;;5040211;28;20301;-53
2022/06/29 04:53:55;;;;;;;10.00;9.13;;;22.20;1.00;;;;;;5034672;28;20439;-54
2022/06/29 04:56:23;;;;;;;11.00;9.90;;;22.10;1.00;;;;;;5044532;28;20439;-56
2022/06/29 04:58:50;;;;;;;10.33;9.43;;;22.20;1.00;;;;;;5035510;28;20473;-55
2022/06/29 05:01:17;;;;;;;11.57;10.57;;;22.00;1.00;;;;;;5033671;28;20530;-54
2022/06/29 05:03:42;;;;;;;10.23;9.33;;;22.00;1.00;;;;;;5035943;28;20926;-55
2022/06/29 05:06:08;;;;;;;10.60;9.73;;;22.10;1.00;;;;;;5035366;28;20458;-53
2022/06/29 05:08:34;;;;;;;10.83;9.87;;;22.30;1.00;;;;;;5032061;28;20630;-55
2022/06/29 05:11:00;;;;;;;9.97;9.17;;;22.40;1.00;;;;;;5032076;28;20247;-54
2022/06/29 05:13:25;;;;;;;9.90;9.10;;;22.50;1.00;;;;;;5032076;28;20479;-55
2022/06/29 05:15:51;;;;;;;10.97;9.77;;;22.50;1.00;;;;;;5045329;28;20218;-55
2022/06/29 05:18:16;;;;;;;11.40;10.50;;;22.60;1.00;;;;;;5053478;28;20244;-52
2022/06/29 05:20:45;;;;;;;9.70;9.00;;;22.70;1.00;;;;;;5041630;28;20184;-56
2022/06/29 05:23:11;;;;;;;9.47;8.57;;;22.60;1.00;;;;;;5049289;28;20185;-52
2022/06/29 05:25:37;;;;;;;9.97;8.57;;;22.60;1.00;;;;;;5039413;28;20530;-56
2022/06/29 05:28:03;;;;;;;10.97;10.00;;;22.70;1.00;;;;;;5035826;28;20561;-55
2022/06/29 05:30:29;;;;;;;9.70;8.90;;;22.80;1.00;;;;;;5035973;28;20490;-55
2022/06/29 05:32:54;;;;;;;9.60;8.80;;;22.80;1.00;;;;;;5035949;28;20180;-55
2022/06/29 05:35:20;;;;;;;13.80;9.40;;;22.70;1.00;;;;;;5051929;28;20164;-54
2022/06/29 05:37:46;;;;;;;9.17;8.47;;;22.60;1.00;;;;;;5055584;28;20689;-54
2022/06/29 05:40:11;;;;;;;9.03;8.13;;;22.60;1.00;;;;;;5049746;28;20550;-55
2022/06/29 05:42:37;;;;;;;9.97;9.07;;;22.60;1.00;;;;;;5034660;28;20193;-57
2022/06/29 05:45:03;;;;;;;9.03;8.33;;;22.60;1.00;;;;;;5032978;28;20224;-54
2022/06/29 05:47:29;;;;;;;8.97;8.17;;;22.70;1.00;;;;;;5035246;28;20188;-54
2022/06/29 05:50:00;;;;;;;11.90;11.00;;;23.20;1.00;;;;;;5030993;28;20467;-54
2022/06/29 05:52:25;;;;;;;7.87;7.20;;;22.70;1.00;;;;;;5042368;28;20180;-54
2022/06/29 05:54:51;;;;;;;8.70;7.87;;;22.50;1.00;;;;;;5052287;28;20434;-54
2022/06/29 05:57:19;;;;;;;7.90;7.20;;;22.30;1.00;;;;;;5052030;28;20681;-55
2022/06/29 05:59:46;;;;;;;7.43;6.83;;;22.30;1.00;;;;;;5035517;28;20220;-55
2022/06/29 06:02:11;;;;;;;7.90;7.20;;;22.20;1.00;;;;;;5032110;28;20869;-54
2022/06/29 06:04:37;;;;;;;7.70;7.00;;;22.20;1.00;;;;;;5032482;28;20483;-54
2022/06/29 06:07:03;;;;;;;7.17;6.50;;;22.20;1.00;;;;;;5032592;28;20196;-56
2022/06/29 06:09:28;;;;;;;7.70;7.00;;;22.20;1.00;;;;;;5033720;28;20204;-54
2022/06/29 06:11:55;;;;;;;7.13;6.47;;;22.20;1.00;;;;;;5032307;28;20687;-57
2022/06/29 06:14:20;;;;;;;8.07;6.30;;;22.20;1.00;;;;;;5032087;28;20196;-56
2022/06/29 06:16:46;;;;;;;6.23;5.63;;;22.20;1.00;;;;;;5032489;28;20440;-54
2022/06/29 06:19:12;;;;;;;6.00;5.40;;;22.20;1.00;;;;;;5031864;28;20189;-53
2022/06/29 06:21:38;;;;;;;6.63;5.93;;;22.10;1.00;;;;;;5050113;28;20179;-55
2022/06/29 06:24:04;;;;;;;6.67;6.00;;;22.10;1.00;;;;;;5051762;28;20223;-55
2022/06/29 06:26:31;;;;;;;11.93;6.70;;;21.90;1.00;;;;;;5051266;28;20438;-54
2022/06/29 06:28:57;;;;;;;9.50;6.53;;;22.10;1.00;;;;;;5051358;28;20453;-54
2022/06/29 06:31:26;;;;;;;17.47;6.77;;;23.50;1.00;;;;;;5051952;28;20469;-55
2022/06/29 06:33:52;;;;;;;11.23;6.77;;;22.20;1.00;;;;;;5051686;28;20796;-54
2022/06/29 06:36:18;;;;;;;7.00;5.90;;;22.20;1.00;;;;;;5037176;28;20450;-55
2022/06/29 06:38:43;;;;;;;17.80;11.63;;;22.30;1.00;;;;;;5031463;28;20634;-53
2022/06/29 06:41:22;;;;;;;7.10;6.40;;;22.30;1.00;;;;;;5031295;28;20184;-54
2022/06/29 06:43:57;;;;;;;14.23;5.97;;;22.30;1.00;;;;;;5029427;28;20283;-53
2022/06/29 06:46:23;;;;;;;9.90;6.00;;;22.40;1.00;;;;;;5033335;28;20796;-55
2022/06/29 06:48:50;;;;;;;9.70;5.80;;;22.30;1.00;;;;;;5031781;28;20509;-56
2022/06/29 06:51:17;;;;;;;12.63;6.30;;;22.30;1.00;;;;;;5031682;28;20501;-56
2022/06/29 06:53:44;;;;;;;9.87;5.90;;;22.20;1.00;;;;;;5050896;28;20520;-53
2022/06/29 06:56:09;;;;;;;11.27;7.43;;;22.30;1.00;;;;;;5050307;28;20527;-55
2022/06/29 06:58:35;;;;;;;11.60;6.83;;;22.20;1.00;;;;;;5049396;28;20547;-55
2022/06/29 07:01:08;;;;;;;6.37;5.77;;;22.30;1.00;;;;;;5032371;28;20181;-53
2022/06/29 07:03:37;;;;;;;6.43;5.90;;;22.40;1.00;;;;;;5031247;28;20928;-55
2022/06/29 07:06:07;;;;;;;6.13;5.63;;;22.40;1.00;;;;;;5031121;28;20809;-55
2022/06/29 07:08:35;;;;;;;7.07;6.47;;;22.30;1.00;;;;;;5028525;28;20443;-55
2022/06/29 07:11:03;;;;;;;7.10;6.23;;;22.30;1.00;;;;;;5030758;28;20467;-52
2022/06/29 07:13:29;;;;;;;6.10;5.60;;;22.50;1.00;;;;;;5031481;28;20490;-53
2022/06/29 07:15:55;;;;;;;7.17;6.43;;;22.70;1.00;;;;;;5032162;28;20443;-54
2022/06/29 07:18:21;;;;;;;8.17;6.53;;;22.80;1.00;;;;;;5031151;28;20489;-55
2022/06/29 07:20:47;;;;;;;7.37;6.77;;;23.00;1.00;;;;;;5030770;28;20221;-55
2022/06/29 07:23:13;;;;;;;5.97;5.47;;;23.10;1.00;;;;;;5033012;28;20458;-55
2022/06/29 07:25:39;;;;;;;6.27;5.67;;;23.30;1.00;;;;;;5041502;28;20443;-55
2022/06/29 07:28:05;;;;;;;6.33;5.83;;;23.30;1.00;;;;;;5039567;28;20264;-55
2022/06/29 07:30:31;;;;;;;6.57;6.07;;;23.40;1.00;;;;;;5050527;28;20204;-55
2022/06/29 07:32:57;;;;;;;7.90;6.40;;;23.30;1.00;;;;;;5037469;28;20853;-53
2022/06/29 07:35:23;;;;;;;8.23;6.80;;;23.30;1.00;;;;;;5039471;28;20466;-55
2022/06/29 07:37:50;;;;;;;6.50;5.90;;;23.40;1.00;;;;;;5030425;28;20204;-56
2022/06/29 07:40:16;;;;;;;6.90;6.20;;;23.50;1.00;;;;;;5030393;28;20208;-53
2022/06/29 07:42:41;;;;;;;6.73;6.13;;;23.60;1.00;;;;;;5030728;28;20948;-55
2022/06/29 07:45:07;;;;;;;6.70;6.10;;;23.70;1.00;;;;;;5031692;28;20177;-54
2022/06/29 07:47:33;;;;;;;6.97;6.30;;;23.80;1.00;;;;;;5046771;28;20176;-54
2022/06/29 07:49:59;;;;;;;7.90;7.20;;;23.80;1.00;;;;;;5050285;28;20436;-55
2022/06/29 07:52:25;;;;;;;7.77;6.97;;;23.70;1.00;;;;;;5050228;28;20183;-53
2022/06/29 07:54:51;;;;;;;7.17;6.40;;;23.60;1.00;;;;;;5050120;28;20504;-53
2022/06/29 07:57:17;;;;;;;6.37;5.87;;;23.60;1.00;;;;;;5038540;28;20890;-55
2022/06/29 07:59:44;;;;;;;7.13;6.63;;;23.60;1.00;;;;;;5033689;28;20188;-54
2022/06/29 08:02:10;;;;;;;7.03;6.43;;;23.60;1.00;;;;;;5030333;28;20443;-53
2022/06/29 08:04:36;;;;;;;8.03;6.93;;;23.30;1.00;;;;;;5030051;28;21457;-53
2022/06/29 08:07:01;;;;;;;7.07;6.47;;;22.90;1.00;;;;;;5041590;28;20564;-54
2022/06/29 08:09:27;;;;;;;7.17;6.57;;;22.70;1.00;;;;;;5035687;28;20209;-55
2022/06/29 08:11:52;;;;;;;7.77;7.17;;;22.80;1.00;;;;;;5043774;28;20177;-55
2022/06/29 08:14:18;;;;;;;7.87;7.07;;;23.00;1.00;;;;;;5050006;28;20646;-51
2022/06/29 08:16:44;;;;;;;7.37;6.77;;;23.20;1.00;;;;;;5049878;28;20658;-55
2022/06/29 08:19:09;;;;;;;7.70;7.00;;;23.40;1.00;;;;;;5049546;28;20518;-55
2022/06/29 08:21:35;;;;;;;11.17;6.53;;;23.70;1.00;;;;;;5043973;28;20239;-53
2022/06/29 08:24:01;;;;;;;7.33;6.77;;;23.80;1.00;;;;;;5048214;28;20200;-54
2022/06/29 08:26:26;;;;;;;8.77;8.07;;;23.90;1.00;;;;;;5043543;28;21311;-54
2022/06/29 08:28:52;;;;;;;7.70;7.10;;;24.10;1.00;;;;;;5043076;28;20476;-55
2022/06/29 08:31:18;;;;;;;8.30;7.50;;;24.10;1.00;;;;;;5033802;28;20212;-54
2022/06/29 08:33:43;;;;;;;7.50;6.83;;;24.30;1.00;;;;;;5042495;28;20189;-54
2022/06/29 08:36:09;;;;;;;9.83;8.30;;;24.50;1.00;;;;;;5030162;28;20185;-55
2022/06/29 08:38:35;;;;;;;7.70;7.10;;;24.60;1.00;;;;;;5042751;28;20184;-55
2022/06/29 08:41:00;;;;;;;8.90;8.17;;;24.70;1.00;;;;;;5034054;28;20486;-53
2022/06/29 08:43:26;;;;;;;8.57;7.87;;;24.60;1.00;;;;;;5045151;28;20264;-56
2022/06/29 08:45:53;;;;;;;8.63;7.93;;;24.20;1.00;;;;;;5043753;28;20580;-55
2022/06/29 08:48:19;;;;;;;7.77;7.10;;;24.10;1.00;;;;;;5030061;28;20673;-56
2022/06/29 08:50:51;;;;;;;9.07;8.33;;;24.00;1.00;;;;;;5031078;28;20459;-56
2022/06/29 08:53:16;;;;;;;9.23;7.90;;;24.10;1.00;;;;;;5032632;28;20443;-55
2022/06/29 08:55:48;;;;;;;8.93;8.23;;;24.40;1.00;;;;;;5036878;28;20511;-55
2022/06/29 08:58:18;;;;;;;8.83;7.93;;;24.60;1.00;;;;;;5028885;28;20235;-56
2022/06/29 09:00:44;;;;;;;8.80;8.00;;;24.40;1.00;;;;;;5029844;28;20447;-54
2022/06/29 09:03:10;;;;;;;10.03;9.00;;;24.20;1.00;;;;;;5029929;28;20447;-56
2022/06/29 09:05:37;;;;;;;10.10;9.20;;;23.80;1.00;;;;;;5030277;28;20700;-56
2022/06/29 09:08:03;;;;;;;11.20;10.20;;;23.50;1.00;;;;;;5039966;28;20434;-53
2022/06/29 09:10:30;;;;;;;10.63;9.67;;;23.50;1.00;;;;;;5041603;28;20550;-54
2022/06/29 09:12:58;;;;;;;15.60;9.60;;;23.40;1.00;;;;;;5032376;28;20439;-55
2022/06/29 09:15:40;;;;;;;11.03;10.07;;;23.70;1.00;;;;;;5028760;28;20421;-54
2022/06/29 09:18:32;;;;;;;10.60;9.70;;;23.90;1.00;;;;;;5034307;28;20537;-55
2022/06/29 09:21:15;;;;;;;12.23;10.50;;;23.90;1.00;;;;;;5032149;28;20936;-53
2022/06/29 09:23:43;;;;;;;12.47;10.60;;;23.90;1.00;;;;;;5035982;28;20529;-55
2022/06/29 09:26:08;;;;;;;11.27;10.27;;;24.00;1.00;;;;;;5034837;28;20594;-53
2022/06/29 09:28:34;;;;;;;13.37;11.70;;;23.80;1.00;;;;;;5032267;28;20561;-54
2022/06/29 09:31:00;;;;;;;11.83;10.77;;;23.40;1.00;;;;;;5033680;28;20315;-53
2022/06/29 09:33:31;;;;;;;13.10;11.77;;;23.10;1.00;;;;;;5032063;28;20439;-55
2022/06/29 09:36:12;;;;;;;13.40;12.10;;;23.00;1.00;;;;;;5037308;28;20438;-55
2022/06/29 09:38:38;;;;;;;13.00;11.90;;;23.10;1.00;;;;;;5031582;28;20485;-52
2022/06/29 09:41:10;;;;;;;13.03;11.77;;;23.10;1.00;;;;;;5030573;28;20458;-55
2022/06/29 09:43:44;;;;;;;12.33;11.20;;;22.70;1.00;;;;;;5031394;28;20443;-53
2022/06/29 09:46:12;;;;;;;12.07;10.87;;;22.70;1.00;;;;;;5032785;28;20431;-53
2022/06/29 09:48:39;;;;;;;12.00;10.60;;;23.10;1.00;;;;;;5032908;28;20467;-62
2022/06/29 09:53:54;;;;;;;10.23;9.43;;;23.80;1.00;;;;;;5033175;28;20545;-55
2022/06/29 09:56:21;;;;;;;11.93;10.73;;;24.60;1.00;;;;;;5032870;28;20431;-53
2022/06/29 09:58:48;;;;;;;10.07;9.23;;;24.80;1.00;;;;;;5033051;28;20952;-55
2022/06/29 10:04:01;;;;;;;10.17;9.10;;;24.40;1.00;;;;;;5032593;28;20486;-54
2022/06/29 10:06:27;;;;;;;9.80;9.00;;;24.60;1.00;;;;;;5031801;28;20451;-55
2022/06/29 10:08:54;;;;;;;11.20;10.27;;;24.70;1.00;;;;;;5032030;28;20429;-54
2022/06/29 10:14:53;;;;;;;9.23;8.37;;;25.30;1.00;;;;;;5031437;28;20539;-54
2022/06/29 10:17:37;;;;;;;9.90;9.00;;;25.50;1.00;;;;;;5032022;28;20417;-54
2022/06/29 10:20:21;;;;;;;8.50;7.90;;;25.40;1.00;;;;;;5029983;28;21061;-54
2022/06/29 10:22:47;;;;;;;9.07;8.27;;;25.40;1.00;;;;;;5030787;28;20498;-53
2022/06/29 10:25:13;;;;;;;8.77;8.07;;;25.60;1.00;;;;;;5031026;28;20819;-54
2022/06/29 10:28:19;;;;;;;9.53;8.67;;;25.50;1.00;;;;;;5030961;28;20864;-54
2022/06/29 10:30:45;;;;;;;8.20;7.57;;;25.70;1.00;;;;;;5029554;28;20812;-53
2022/06/29 10:33:29;;;;;;;8.90;8.00;;;25.90;1.00;;;;;;5033928;28;20789;-54
2022/06/29 10:36:05;;;;;;;7.97;7.33;;;26.10;1.00;;;;;;5030752;28;20546;-56
2022/06/29 10:38:55;;;;;;;7.93;7.30;;;26.00;1.00;;;;;;5036670;28;20431;-54
2022/06/29 10:44:08;;;;;;;7.70;7.10;;;26.60;1.00;;;;;;5033500;28;20436;-55
2022/06/29 10:46:57;;;;;;;8.33;6.83;;;26.30;1.00;;;;;;5036329;28;20809;-56
2022/06/29 10:49:24;;;;;;;8.00;7.30;;;25.90;1.00;;;;;;5029640;28;20526;-54
2022/06/29 10:51:50;;;;;;;8.83;8.10;;;26.00;1.00;;;;;;5031724;28;20442;-56
2022/06/29 10:54:42;;;;;;;8.27;7.57;;;26.00;1.00;;;;;;5030737;28;20517;-57
2022/06/29 10:57:08;;;;;;;7.33;6.83;;;26.00;1.00;;;;;;5026896;28;20669;-56
2022/06/29 10:59:38;;;;;;;8.47;7.87;;;26.00;1.00;;;;;;5034303;28;20433;-53
2022/06/29 11:02:15;;;;;;;7.00;6.50;;;26.00;1.00;;;;;;5040451;28;20277;-55
2022/06/29 11:04:42;;;;;;;7.83;7.23;;;26.10;1.00;;;;;;5038272;28;20504;-55
2022/06/29 11:12:50;;;;;;;7.20;6.70;;;26.40;1.00;;;;;;5036714;28;20430;-56
2022/06/29 11:15:39;;;;;;;8.63;7.80;;;26.60;1.00;;;;;;5051490;28;20438;-56
2022/06/29 11:18:12;;;;;;;11.90;8.30;;;27.00;1.00;;;;;;5039407;28;20431;-55
2022/06/29 11:20:39;;;;;;;10.30;9.60;;;27.30;1.00;;;;;;5046568;28;20443;-55
2022/06/29 11:23:10;;;;;;;9.97;7.47;;;27.40;1.00;;;;;;5043191;28;20765;-56
2022/06/29 11:25:37;;;;;;;8.77;8.13;;;27.10;1.00;;;;;;5046129;28;20446;-57
2022/06/29 11:28:04;;;;;;;9.67;8.80;;;26.60;1.00;;;;;;5033639;28;20478;-56
2022/06/29 11:30:30;;;;;;;9.53;8.70;;;26.70;1.00;;;;;;5035289;28;20825;-55
2022/06/29 11:32:55;;;;;;;9.63;8.93;;;26.80;1.00;;;;;;5039711;28;20447;-54
2022/06/29 11:35:23;;;;;;;9.70;8.90;;;26.70;1.00;;;;;;5041475;28;20427;-55
2022/06/29 11:38:01;;;;;;;10.17;9.27;;;26.00;1.00;;;;;;5040639;28;20180;-56
2022/06/29 11:40:41;;;;;;;10.03;9.13;;;25.70;1.00;;;;;;5039600;28;20467;-56
2022/06/29 11:43:18;;;;;;;10.60;9.70;;;25.80;1.00;;;;;;5047020;28;20894;-54
2022/06/29 11:45:47;;;;;;;13.27;12.07;;;25.80;1.00;;;;;;5038216;28;20447;-57
2022/06/29 11:49:33;;;;;;;12.47;11.37;;;25.60;1.00;;;;;;5042466;28;20435;-53
2022/06/29 11:51:20;;;;;;;12.63;11.60;;;25.00;1.00;;;;;;5038846;28;21091;-55
2022/06/29 11:53:53;;;;;;;13.50;11.70;;;24.90;1.00;;;;;;5041806;28;20454;-54
2022/06/29 11:56:22;;;;;;;12.20;11.00;;;25.00;1.00;;;;;;5045838;28;20462;-53
2022/06/29 11:58:50;;;;;;;11.93;11.03;;;25.30;1.00;;;;;;5033107;28;20491;-53
2022/06/29 12:01:23;;;;;;;12.27;11.20;;;25.30;1.00;;;;;;5042462;28;20478;-54
2022/06/29 12:03:49;;;;;;;13.27;11.97;;;25.40;1.00;;;;;;5038283;28;20524;-53
2022/06/29 12:06:16;;;;;;;14.23;11.43;;;25.30;1.00;;;;;;5040077;28;20783;-54
2022/06/29 12:08:41;;;;;;;15.03;13.53;;;25.00;1.00;;;;;;5031823;28;20431;-54
2022/06/29 12:11:07;;;;;;;14.50;13.20;;;24.60;1.00;;;;;;5033266;28;20960;-56
2022/06/29 12:13:33;;;;;;;14.87;13.50;;;24.40;1.00;;;;;;5037969;28;20207;-53
2022/06/29 12:15:59;;;;;;;13.73;12.50;;;24.30;1.00;;;;;;5034554;28;20219;-52
2022/06/29 12:18:24;;;;;;;17.63;14.43;;;24.40;1.00;;;;;;5035668;28;20176;-54
2022/06/29 12:20:50;;;;;;;13.17;12.17;;;24.20;1.00;;;;;;5045511;28;20772;-54
2022/06/29 12:23:16;;;;;;;13.00;11.80;;;24.20;1.00;;;;;;5043480;28;20223;-54
2022/06/29 12:25:41;;;;;;;15.00;13.43;;;24.00;1.00;;;;;;5043165;28;20634;-55
2022/06/29 12:28:07;;;;;;;14.77;13.27;;;24.00;1.00;;;;;;5039575;28;20247;-53
2022/06/29 12:30:34;;;;;;;16.50;14.87;;;23.90;1.00;;;;;;5041047;28;21911;-53
2022/06/29 12:33:00;;;;;;;16.53;15.07;;;23.80;1.00;;;;;;5040103;28;20410;-54
2022/06/29 12:35:26;;;;;;;15.53;14.13;;;23.80;1.00;;;;;;5037088;28;20451;-54
2022/06/29 12:37:57;;;;;;;16.77;15.13;;;23.80;1.00;;;;;;5045961;28;20659;-57
2022/06/29 12:40:26;;;;;;;16.63;15.23;;;23.90;1.00;;;;;;5038162;28;20448;-56
2022/06/29 12:42:52;;;;;;;15.30;13.93;;;24.00;1.00;;;;;;5036192;28;20417;-55
2022/06/29 12:45:19;;;;;;;15.30;13.80;;;24.00;1.00;;;;;;5043222;28;20447;-51
2022/06/29 12:47:45;;;;;;;14.90;13.63;;;23.90;1.00;;;;;;5044306;28;20478;-54
2022/06/29 12:50:11;;;;;;;14.67;13.33;;;24.00;1.00;;;;;;5043343;28;20459;-53
2022/06/29 12:52:40;;;;;;;14.37;13.20;;;24.00;1.00;;;;;;5038750;28;20816;-54
2022/06/29 12:55:07;;;;;;;15.77;14.37;;;24.10;1.00;;;;;;5035860;28;20432;-56
2022/06/29 12:57:33;;;;;;;15.40;14.10;;;24.20;1.00;;;;;;5044315;28;20454;-57
2022/06/29 12:59:59;;;;;;;14.30;13.10;;;24.10;1.00;;;;;;5034023;28;20778;-54
2022/06/29 13:02:24;;;;;;;14.93;13.63;;;24.00;1.00;;;;;;5036645;28;20184;-55
2022/06/29 13:04:50;;;;;;;15.07;13.67;;;24.10;1.00;;;;;;5040907;28;20272;-54
2022/06/29 13:07:15;;;;;;;14.37;13.07;;;24.30;1.00;;;;;;5041646;28;20193;-54
2022/06/29 13:09:41;;;;;;;14.43;13.27;;;24.40;1.00;;;;;;5042233;28;20208;-56
2022/06/29 13:12:07;;;;;;;13.70;12.50;;;24.40;1.00;;;;;;5053707;28;20349;-55
2022/06/29 13:14:33;;;;;;;14.63;13.33;;;24.30;1.00;;;;;;5042189;28;20182;-55